Time;durP1;ratioP1;P1;durP2;ratioP2;P2;SDS_P1;SDS_P2;PMS_P1;PMS_P2;Temp;Humidity;BMP_temperature;BMP_pressure;BME280_temperature;BME280_humidity;BME280_pressure;Samples;Min_cycle;Max_cycle;Signal;HPM_P1;HPM_P2
2023/11/09 00:02:14;;;;;;;23.60;22.35;;;;;;;;;;5064003;28;20119;-63
2023/11/09 00:04:40;;;;;;;24.90;23.55;;;;;;;;;;5062944;28;20063;-63
2023/11/09 00:07:07;;;;;;;26.23;24.67;;;;;;;;;;5062894;28;20090;-64
2023/11/09 00:09:33;;;;;;;25.25;23.52;;;;;;;;;;5059320;28;20033;-63
2023/11/09 00:11:59;;;;;;;24.50;23.20;;;;;;;;;;5061867;28;20390;-63
2023/11/09 00:14:25;;;;;;;24.50;23.20;;;;;;;;;;5064075;28;20051;-64
2023/11/09 00:16:50;;;;;;;23.23;22.00;;;;;;;;;;5064988;28;20024;-64
2023/11/09 00:19:15;;;;;;;24.73;23.23;;;;;;;;;;5064178;28;20036;-64
2023/11/09 00:21:41;;;;;;;23.70;22.40;;;;;;;;;;5059250;28;20033;-64
2023/11/09 00:24:10;;;;;;;24.35;22.92;;;;;;;;;;5063142;28;20055;-64
2023/11/09 00:26:37;;;;;;;22.88;21.63;;;;;;;;;;5048595;28;20016;-64
2023/11/09 00:29:02;;;;;;;23.50;22.20;;;;;;;;;;5059920;28;20067;-64
2023/11/09 00:31:28;;;;;;;24.48;22.98;;;;;;;;;;5062267;28;20740;-64
2023/11/09 00:33:53;;;;;;;23.83;22.52;;;;;;;;;;5061589;28;20040;-63
2023/11/09 00:36:18;;;;;;;23.90;22.60;;;;;;;;;;5060513;28;20036;-64
2023/11/09 00:38:46;;;;;;;23.58;22.27;;;;;;;;;;5060792;28;20029;-64
2023/11/09 00:41:11;;;;;;;22.70;21.50;;;;;;;;;;5061994;28;20039;-64
2023/11/09 00:43:37;;;;;;;22.73;21.48;;;;;;;;;;5060838;28;20029;-64
2023/11/09 00:46:02;;;;;;;25.45;23.90;;;;;;;;;;5061638;28;20256;-69
2023/11/09 00:48:28;;;;;;;21.70;20.35;;;;;;;;;;5062838;28;20032;-70
2023/11/09 00:50:53;;;;;;;23.27;22.02;;;;;;;;;;5063834;28;20048;-70
2023/11/09 00:53:19;;;;;;;22.27;21.08;;;;;;;;;;5064072;28;20039;-69
2023/11/09 00:55:44;;;;;;;22.45;21.05;;;;;;;;;;5061747;28;20075;-70
2023/11/09 00:58:10;;;;;;;23.38;22.10;;;;;;;;;;5064161;28;20048;-69
2023/11/09 01:00:35;;;;;;;22.65;21.42;;;;;;;;;;5060121;28;20028;-70
2023/11/09 01:03:01;;;;;;;20.23;19.13;;;;;;;;;;5064729;28;20543;-70
2023/11/09 01:05:26;;;;;;;19.90;18.80;;;;;;;;;;5063904;28;20659;-69
2023/11/09 01:07:52;;;;;;;21.50;20.30;;;;;;;;;;5062060;28;20103;-69
2023/11/09 01:10:17;;;;;;;20.05;18.95;;;;;;;;;;5063724;28;20139;-70
2023/11/09 01:12:43;;;;;;;21.30;20.10;;;;;;;;;;5063586;28;20029;-69
2023/11/09 01:15:09;;;;;;;19.77;18.67;;;;;;;;;;5062293;28;20090;-68
2023/11/09 01:17:37;;;;;;;20.60;19.50;;;;;;;;;;5062598;28;20040;-68
2023/11/09 01:20:04;;;;;;;18.55;17.55;;;;;;;;;;5066185;28;20277;-69
2023/11/09 01:22:30;;;;;;;20.80;18.83;;;;;;;;;;5062569;28;20151;-68
2023/11/09 01:24:56;;;;;;;20.33;19.17;;;;;;;;;;5063618;28;20107;-69
2023/11/09 01:27:22;;;;;;;19.17;18.08;;;;;;;;;;5061957;28;20070;-68
2023/11/09 01:29:47;;;;;;;21.83;20.63;;;;;;;;;;5061975;28;20028;-68
2023/11/09 01:32:12;;;;;;;19.95;18.85;;;;;;;;;;5060480;28;20040;-69
2023/11/09 01:34:38;;;;;;;22.33;21.13;;;;;;;;;;5060545;28;20300;-68
2023/11/09 01:37:10;;;;;;;19.38;18.27;;;;;;;;;;5061436;28;20093;-68
2023/11/09 01:39:39;;;;;;;19.83;18.73;;;;;;;;;;5061123;28;20120;-69
2023/11/09 01:42:05;;;;;;;19.63;18.52;;;;;;;;;;5059390;28;20164;-68
2023/11/09 01:44:33;;;;;;;19.73;18.42;;;;;;;;;;5060438;28;20120;-68
2023/11/09 01:46:59;;;;;;;18.33;17.33;;;;;;;;;;5062569;28;20091;-68
2023/11/09 01:49:25;;;;;;;19.58;18.48;;;;;;;;;;5060247;28;20044;-70
2023/11/09 01:51:54;;;;;;;18.77;17.67;;;;;;;;;;5059746;28;20472;-69
2023/11/09 01:54:21;;;;;;;19.15;18.13;;;;;;;;;;5064023;28;20041;-69
2023/11/09 01:56:47;;;;;;;20.02;18.40;;;;;;;;;;5066577;28;20021;-69
2023/11/09 01:59:15;;;;;;;18.60;17.40;;;;;;;;;;5068102;28;20059;-69
2023/11/09 02:01:42;;;;;;;19.05;17.88;;;;;;;;;;5069086;28;20040;-70
2023/11/09 02:04:08;;;;;;;19.23;18.13;;;;;;;;;;5065777;28;20551;-69
2023/11/09 02:06:34;;;;;;;19.27;18.17;;;;;;;;;;5067720;28;20373;-69
2023/11/09 02:09:00;;;;;;;19.15;18.05;;;;;;;;;;5064781;28;20032;-69
2023/11/09 02:11:26;;;;;;;20.80;19.65;;;;;;;;;;5065011;28;20032;-70
2023/11/09 02:13:51;;;;;;;21.30;20.05;;;;;;;;;;5067888;28;20565;-70
2023/11/09 02:16:17;;;;;;;20.00;18.90;;;;;;;;;;5062289;28;20347;-70
2023/11/09 02:18:42;;;;;;;22.05;20.85;;;;;;;;;;5048610;28;21085;-70
2023/11/09 02:21:11;;;;;;;20.20;19.00;;;;;;;;;;5062746;28;20040;-69
2023/11/09 02:23:38;;;;;;;20.15;19.02;;;;;;;;;;5064070;28;20056;-69
2023/11/09 02:26:04;;;;;;;18.90;17.90;;;;;;;;;;5066130;28;20033;-69
2023/11/09 02:28:32;;;;;;;20.00;18.90;;;;;;;;;;5066226;28;20347;-69
2023/11/09 02:30:57;;;;;;;18.48;17.48;;;;;;;;;;5062243;28;20133;-69
2023/11/09 02:33:22;;;;;;;19.70;18.50;;;;;;;;;;5061436;28;20492;-63
2023/11/09 02:35:49;;;;;;;18.23;17.23;;;;;;;;;;5063242;28;20033;-63
2023/11/09 02:38:14;;;;;;;19.20;18.10;;;;;;;;;;5063251;28;20146;-63
2023/11/09 02:40:40;;;;;;;19.13;18.05;;;;;;;;;;5066707;28;20418;-63
2023/11/09 02:43:05;;;;;;;19.77;18.67;;;;;;;;;;5061975;28;20480;-63
2023/11/09 02:45:30;;;;;;;19.00;17.92;;;;;;;;;;5065617;28;20062;-63
2023/11/09 02:47:56;;;;;;;19.30;18.20;;;;;;;;;;5062869;28;20044;-61
2023/11/09 02:50:21;;;;;;;19.45;18.25;;;;;;;;;;5067444;28;20024;-62
2023/11/09 02:52:48;;;;;;;19.23;18.13;;;;;;;;;;5061204;28;20044;-63
2023/11/09 02:55:14;;;;;;;18.88;17.80;;;;;;;;;;5064876;28;20475;-63
2023/11/09 02:57:39;;;;;;;18.23;17.23;;;;;;;;;;5062843;28;20048;-63
2023/11/09 03:00:06;;;;;;;17.98;16.98;;;;;;;;;;5065966;28;20028;-63
2023/11/09 03:02:32;;;;;;;18.10;17.10;;;;;;;;;;5061856;28;20366;-62
2023/11/09 03:04:58;;;;;;;19.83;18.63;;;;;;;;;;5062327;28;20025;-63
2023/11/09 03:07:23;;;;;;;17.23;16.27;;;;;;;;;;5061938;28;20051;-63
2023/11/09 03:09:49;;;;;;;20.00;18.70;;;;;;;;;;5064141;28;20529;-63
2023/11/09 03:12:14;;;;;;;18.15;17.15;;;;;;;;;;5067765;28;20046;-62
2023/11/09 03:14:39;;;;;;;18.60;17.60;;;;;;;;;;5063699;28;20029;-62
2023/11/09 03:17:10;;;;;;;19.60;18.50;;;;;;;;;;5064514;28;20063;-63
2023/11/09 03:19:37;;;;;;;18.40;17.30;;;;;;;;;;5064868;28;20541;-63
2023/11/09 03:22:10;;;;;;;19.52;18.42;;;;;;;;;;5065647;28;20044;-62
2023/11/09 03:24:36;;;;;;;19.10;18.00;;;;;;;;;;5067855;28;20064;-63
2023/11/09 03:27:03;;;;;;;19.88;18.52;;;;;;;;;;5064195;28;20150;-62
2023/11/09 03:29:28;;;;;;;18.42;17.40;;;;;;;;;;5061488;28;20449;-63
2023/11/09 03:31:53;;;;;;;19.73;18.52;;;;;;;;;;5063701;28;20032;-63
2023/11/09 03:34:19;;;;;;;19.48;18.38;;;;;;;;;;5064044;28;21013;-63
2023/11/09 03:36:45;;;;;;;18.92;17.92;;;;;;;;;;5063290;28;20094;-63
2023/11/09 03:39:10;;;;;;;19.48;18.40;;;;;;;;;;5060525;28;20096;-63
2023/11/09 03:41:36;;;;;;;17.92;16.92;;;;;;;;;;5061624;28;20483;-63
2023/11/09 03:44:01;;;;;;;19.00;17.67;;;;;;;;;;5061030;28;20085;-63
2023/11/09 03:46:26;;;;;;;17.88;16.88;;;;;;;;;;5061697;28;20020;-63
2023/11/09 03:48:52;;;;;;;17.98;16.98;;;;;;;;;;5064125;28;20042;-61
2023/11/09 03:51:17;;;;;;;17.17;16.17;;;;;;;;;;5060491;28;20039;-67
2023/11/09 03:53:42;;;;;;;16.80;15.80;;;;;;;;;;5067823;28;20047;-69
2023/11/09 03:56:08;;;;;;;16.83;15.93;;;;;;;;;;5064154;28;20040;-69
2023/11/09 03:58:34;;;;;;;17.77;16.77;;;;;;;;;;5060739;28;20047;-69
2023/11/09 04:00:59;;;;;;;16.52;15.52;;;;;;;;;;5062248;28;20429;-69
2023/11/09 04:03:25;;;;;;;17.40;16.40;;;;;;;;;;5063460;28;20477;-69
2023/11/09 04:05:51;;;;;;;17.55;16.25;;;;;;;;;;5063127;28;20028;-69
2023/11/09 04:08:16;;;;;;;16.88;15.98;;;;;;;;;;5062385;28;20104;-69
2023/11/09 04:10:42;;;;;;;17.48;16.48;;;;;;;;;;5061763;28;20032;-69
2023/11/09 04:13:07;;;;;;;18.33;17.23;;;;;;;;;;5062058;28;20024;-69
2023/11/09 04:15:32;;;;;;;17.20;16.23;;;;;;;;;;5061225;28;20025;-69
2023/11/09 04:17:58;;;;;;;16.58;15.68;;;;;;;;;;5068431;28;20028;-69
2023/11/09 04:20:23;;;;;;;18.83;17.73;;;;;;;;;;5063663;28;20205;-69
2023/11/09 04:22:48;;;;;;;18.10;17.10;;;;;;;;;;5058999;28;20090;-69
2023/11/09 04:25:14;;;;;;;17.10;16.20;;;;;;;;;;5059849;28;20033;-69
2023/11/09 04:27:39;;;;;;;16.45;15.55;;;;;;;;;;5060261;28;20033;-69
2023/11/09 04:30:09;;;;;;;16.98;16.08;;;;;;;;;;5060106;28;22555;-69
2023/11/09 04:32:34;;;;;;;17.58;16.48;;;;;;;;;;5060643;28;20617;-69
2023/11/09 04:34:59;;;;;;;18.40;17.23;;;;;;;;;;5059332;28;20044;-69
2023/11/09 04:37:25;;;;;;;16.77;15.68;;;;;;;;;;5060409;28;20062;-69
2023/11/09 04:39:57;;;;;;;18.58;17.25;;;;;;;;;;5060474;28;20086;-67
2023/11/09 04:42:24;;;;;;;17.95;16.88;;;;;;;;;;5058251;28;20060;-68
2023/11/09 04:44:53;;;;;;;17.30;16.10;;;;;;;;;;5060539;28;20347;-68
2023/11/09 04:47:25;;;;;;;15.90;15.00;;;;;;;;;;5060433;28;20090;-69
2023/11/09 04:49:58;;;;;;;17.65;16.65;;;;;;;;;;5060167;28;20048;-68
2023/11/09 04:52:29;;;;;;;17.38;16.40;;;;;;;;;;5060840;28;20036;-68
2023/11/09 04:55:10;;;;;;;17.15;16.20;;;;;;;;;;5056058;28;20603;-68
2023/11/09 05:08:34;;;;;;;17.17;16.20;;;;;;;;;;5074551;28;20048;-69
2023/11/09 05:10:59;;;;;;;16.75;15.77;;;;;;;;;;5061506;28;20036;-69
2023/11/09 05:13:25;;;;;;;17.58;16.58;;;;;;;;;;5061276;28;20028;-69
2023/11/09 05:15:50;;;;;;;16.88;15.98;;;;;;;;;;5059563;28;20035;-69
2023/11/09 05:18:15;;;;;;;18.02;17.02;;;;;;;;;;5058381;28;20119;-69
2023/11/09 05:20:41;;;;;;;15.77;14.88;;;;;;;;;;5059037;28;20170;-69
2023/11/09 05:23:08;;;;;;;17.95;16.88;;;;;;;;;;5059957;28;20463;-69
2023/11/09 05:25:34;;;;;;;17.20;16.20;;;;;;;;;;5060756;28;21268;-66
2023/11/09 05:27:59;;;;;;;16.08;15.18;;;;;;;;;;5062033;28;20040;-69
2023/11/09 05:30:25;;;;;;;17.02;16.02;;;;;;;;;;5065201;28;20033;-69
2023/11/09 05:32:50;;;;;;;17.77;16.77;;;;;;;;;;5065091;28;20060;-67
2023/11/09 05:35:17;;;;;;;17.60;16.60;;;;;;;;;;5061790;28;20035;-68
2023/11/09 05:37:42;;;;;;;16.58;15.68;;;;;;;;;;5061042;28;20044;-69
2023/11/09 05:40:09;;;;;;;17.58;16.50;;;;;;;;;;5061774;28;20102;-69
2023/11/09 05:42:35;;;;;;;17.20;16.20;;;;;;;;;;5061440;28;20028;-69
2023/11/09 05:45:02;;;;;;;17.00;16.00;;;;;;;;;;5061388;28;20443;-68
2023/11/09 05:47:28;;;;;;;19.20;18.10;;;;;;;;;;5063255;28;20245;-69
2023/11/09 05:49:56;;;;;;;18.20;17.20;;;;;;;;;;5063976;28;20143;-68
2023/11/09 05:52:22;;;;;;;17.60;16.50;;;;;;;;;;5062489;28;20025;-68
2023/11/09 05:54:48;;;;;;;17.90;16.90;;;;;;;;;;5069710;28;20032;-68
2023/11/09 05:57:14;;;;;;;19.33;18.23;;;;;;;;;;5064412;28;20063;-68
2023/11/09 05:59:39;;;;;;;17.27;16.27;;;;;;;;;;5063329;28;20110;-68
2023/11/09 06:02:07;;;;;;;17.73;16.73;;;;;;;;;;5062419;28;20416;-69
2023/11/09 06:04:33;;;;;;;18.48;17.48;;;;;;;;;;5064489;28;20025;-69
2023/11/09 06:07:02;;;;;;;18.63;17.63;;;;;;;;;;5062017;28;20028;-68
2023/11/09 06:09:29;;;;;;;18.58;17.35;;;;;;;;;;5063599;28;20472;-69
2023/11/09 06:11:55;;;;;;;17.88;16.80;;;;;;;;;;5060773;28;20033;-68
2023/11/09 06:14:20;;;;;;;17.73;16.73;;;;;;;;;;5057322;28;20036;-68
2023/11/09 06:16:46;;;;;;;18.92;17.83;;;;;;;;;;5063668;28;20083;-68
2023/11/09 06:19:14;;;;;;;19.45;18.35;;;;;;;;;;5058107;28;20138;-69
2023/11/09 06:21:39;;;;;;;17.35;16.35;;;;;;;;;;5064900;28;21019;-68
2023/11/09 06:24:05;;;;;;;18.20;17.20;;;;;;;;;;5057153;28;20799;-68
2023/11/09 06:26:30;;;;;;;17.33;16.33;;;;;;;;;;5050383;28;20032;-69
2023/11/09 06:28:56;;;;;;;17.80;16.80;;;;;;;;;;5059463;28;20107;-69
2023/11/09 06:31:22;;;;;;;18.20;17.05;;;;;;;;;;5059858;28;20057;-69
2023/11/09 06:33:49;;;;;;;18.40;17.33;;;;;;;;;;5062779;28;20036;-69
2023/11/09 06:36:16;;;;;;;17.30;16.30;;;;;;;;;;5062429;28;20453;-68
2023/11/09 06:38:42;;;;;;;19.65;18.55;;;;;;;;;;5063406;28;20067;-68
2023/11/09 06:41:08;;;;;;;19.15;18.05;;;;;;;;;;5062789;28;20037;-68
2023/11/09 06:43:33;;;;;;;17.33;16.33;;;;;;;;;;5063405;28;20101;-68
2023/11/09 06:45:59;;;;;;;18.30;17.30;;;;;;;;;;5060998;28;20491;-67
2023/11/09 06:48:24;;;;;;;17.60;16.60;;;;;;;;;;5062142;28;20526;-69
2023/11/09 06:50:50;;;;;;;19.25;18.17;;;;;;;;;;5060856;28;20421;-68
2023/11/09 06:53:19;;;;;;;18.42;17.42;;;;;;;;;;5058745;28;20045;-67
2023/11/09 06:55:45;;;;;;;18.63;17.63;;;;;;;;;;5058314;28;20070;-69
2023/11/09 06:58:11;;;;;;;20.50;19.40;;;;;;;;;;5059519;28;20603;-70
2023/11/09 07:00:37;;;;;;;22.33;21.13;;;;;;;;;;5063609;28;20040;-69
2023/11/09 07:03:02;;;;;;;21.40;20.25;;;;;;;;;;5061137;28;20033;-69
2023/11/09 07:05:29;;;;;;;22.08;20.88;;;;;;;;;;5064379;28;20593;-68
2023/11/09 07:07:56;;;;;;;24.63;23.27;;;;;;;;;;5060548;28;20029;-69
2023/11/09 07:10:22;;;;;;;28.35;26.80;;;;;;;;;;5059501;28;20029;-68
2023/11/09 07:12:48;;;;;;;29.38;27.75;;;;;;;;;;5058943;28;20160;-70
2023/11/09 07:15:14;;;;;;;28.75;27.25;;;;;;;;;;5058370;28;20111;-70
2023/11/09 07:17:39;;;;;;;28.58;27.08;;;;;;;;;;5058361;28;20059;-69
2023/11/09 07:20:06;;;;;;;29.38;27.48;;;;;;;;;;5054562;28;20060;-69
2023/11/09 07:22:33;;;;;;;26.92;25.50;;;;;;;;;;5060616;28;20047;-70
2023/11/09 07:25:00;;;;;;;27.73;26.27;;;;;;;;;;5059395;28;20036;-69
2023/11/09 07:27:26;;;;;;;29.25;27.35;;;;;;;;;;5059827;28;20040;-70
2023/11/09 07:29:51;;;;;;;28.27;26.80;;;;;;;;;;5061160;28;20074;-69
2023/11/09 07:32:17;;;;;;;28.10;26.63;;;;;;;;;;5063003;28;20032;-70
2023/11/09 07:34:42;;;;;;;28.52;27.02;;;;;;;;;;5057280;28;20048;-70
2023/11/09 07:37:11;;;;;;;25.50;24.15;;;;;;;;;;5061679;28;20110;-70
2023/11/09 07:39:37;;;;;;;25.85;24.35;;;;;;;;;;5064267;28;20029;-71
2023/11/09 07:42:05;;;;;;;24.35;23.02;;;;;;;;;;5061431;28;20106;-71
2023/11/09 07:44:31;;;;;;;22.15;20.95;;;;;;;;;;5058551;28;20041;-72
2023/11/09 07:47:00;;;;;;;23.85;22.55;;;;;;;;;;5063085;28;20036;-71
2023/11/09 07:49:30;;;;;;;21.25;20.10;;;;;;;;;;5057095;28;20119;-70
2023/11/09 07:51:57;;;;;;;20.58;19.48;;;;;;;;;;5058154;28;20041;-71
2023/11/09 07:54:22;;;;;;;19.42;18.38;;;;;;;;;;5057760;28;20060;-71
2023/11/09 07:56:48;;;;;;;20.00;18.80;;;;;;;;;;5061848;28;20037;-71
2023/11/09 07:59:13;;;;;;;19.95;18.83;;;;;;;;;;5060306;28;20064;-70
2023/11/09 08:01:40;;;;;;;19.30;18.13;;;;;;;;;;5060388;28;20469;-70
2023/11/09 08:04:05;;;;;;;17.98;16.98;;;;;;;;;;5060656;28;20417;-69
2023/11/09 08:06:32;;;;;;;19.70;18.60;;;;;;;;;;5057813;28;20021;-71
2023/11/09 08:08:59;;;;;;;18.80;17.77;;;;;;;;;;5062919;28;20664;-70
2023/11/09 08:11:26;;;;;;;23.05;18.05;;;;;;;;;;5058509;28;20086;-70
2023/11/09 08:13:52;;;;;;;19.02;18.02;;;;;;;;;;5062045;28;20043;-70
2023/11/09 08:16:17;;;;;;;18.17;17.17;;;;;;;;;;5061899;28;20373;-70
2023/11/09 08:18:43;;;;;;;18.58;17.48;;;;;;;;;;5062227;28;20041;-71
2023/11/09 08:21:09;;;;;;;17.30;16.30;;;;;;;;;;5058442;28;20036;-70
2023/11/09 08:23:35;;;;;;;19.90;18.80;;;;;;;;;;5058046;28;20037;-70
2023/11/09 08:26:01;;;;;;;17.67;16.67;;;;;;;;;;5059136;28;20052;-70
2023/11/09 08:28:26;;;;;;;18.80;17.80;;;;;;;;;;5064236;28;20066;-70
2023/11/09 08:30:52;;;;;;;16.63;15.73;;;;;;;;;;5056730;28;20036;-64
2023/11/09 08:33:21;;;;;;;17.27;16.30;;;;;;;;;;5059994;28;20040;-64
2023/11/09 08:35:53;;;;;;;18.48;17.48;;;;;;;;;;5058796;28;20063;-64
2023/11/09 08:38:22;;;;;;;20.38;19.17;;;;;;;;;;5057669;28;20029;-64
2023/11/09 08:40:49;;;;;;;17.42;16.42;;;;;;;;;;5059532;28;20029;-64
2023/11/09 08:43:14;;;;;;;18.85;17.55;;;;;;;;;;5056563;28;20422;-64
2023/11/09 08:45:40;;;;;;;17.75;16.75;;;;;;;;;;5065069;28;20029;-64
2023/11/09 08:48:07;;;;;;;18.33;17.33;;;;;;;;;;5060351;28;20040;-64
2023/11/09 08:50:35;;;;;;;17.65;16.65;;;;;;;;;;5059702;28;20059;-64
2023/11/09 08:53:01;;;;;;;16.40;15.50;;;;;;;;;;5055824;28;20043;-63
2023/11/09 08:55:26;;;;;;;17.40;16.40;;;;;;;;;;5057057;28;20040;-64
2023/11/09 08:57:52;;;;;;;17.70;16.70;;;;;;;;;;5061396;28;20017;-63
2023/11/09 09:00:18;;;;;;;17.25;16.25;;;;;;;;;;5059877;28;20488;-63
2023/11/09 09:02:51;;;;;;;17.35;16.35;;;;;;;;;;5060240;28;20057;-63
2023/11/09 09:05:20;;;;;;;18.52;17.52;;;;;;;;;;5058008;28;20449;-63
2023/11/09 09:07:48;;;;;;;17.90;16.90;;;;;;;;;;5057035;28;20039;-63
2023/11/09 09:10:15;;;;;;;19.60;18.50;;;;;;;;;;5058585;28;20060;-63
2023/11/09 09:12:45;;;;;;;18.98;17.88;;;;;;;;;;5057402;28;20140;-63
2023/11/09 09:15:18;;;;;;;18.02;16.85;;;;;;;;;;5056499;28;20044;-63
2023/11/09 09:17:46;;;;;;;17.80;16.80;;;;;;;;;;5057025;28;20036;-62
2023/11/09 09:20:13;;;;;;;17.15;16.15;;;;;;;;;;5055148;28;20024;-63
2023/11/09 09:22:43;;;;;;;19.00;17.90;;;;;;;;;;5060408;28;20033;-63
2023/11/09 09:25:12;;;;;;;17.30;16.30;;;;;;;;;;5056331;28;20037;-63
2023/11/09 09:27:46;;;;;;;17.30;16.30;;;;;;;;;;5059786;28;20135;-63
2023/11/09 09:30:13;;;;;;;17.60;16.60;;;;;;;;;;5057312;28;20116;-63
2023/11/09 09:32:41;;;;;;;18.13;17.02;;;;;;;;;;5056830;28;20218;-63
2023/11/09 09:35:07;;;;;;;16.65;15.70;;;;;;;;;;5060494;28;20028;-63
2023/11/09 09:37:32;;;;;;;17.50;16.50;;;;;;;;;;5057071;28;20075;-63
2023/11/09 09:39:58;;;;;;;16.88;15.98;;;;;;;;;;5061917;28;20069;-63
2023/11/09 09:42:25;;;;;;;18.00;17.00;;;;;;;;;;5057443;28;20037;-63
2023/11/09 09:44:56;;;;;;;17.60;16.60;;;;;;;;;;5056590;28;20032;-63
2023/11/09 09:47:24;;;;;;;17.92;16.70;;;;;;;;;;5061782;28;20052;-64
2023/11/09 09:49:51;;;;;;;18.92;17.83;;;;;;;;;;5059824;28;20037;-64
2023/11/09 09:52:17;;;;;;;17.83;16.52;;;;;;;;;;5058923;28;20036;-64
2023/11/09 09:54:44;;;;;;;17.30;16.30;;;;;;;;;;5058016;28;20093;-64
2023/11/09 09:57:10;;;;;;;17.92;16.83;;;;;;;;;;5058388;28;20534;-64
2023/11/09 09:59:36;;;;;;;18.38;17.27;;;;;;;;;;5058118;28;20036;-64
2023/11/09 10:02:06;;;;;;;17.20;16.23;;;;;;;;;;5060535;28;20029;-64
2023/11/09 10:04:33;;;;;;;19.50;17.60;;;;;;;;;;5073059;28;20032;-64
2023/11/09 10:06:58;;;;;;;17.92;16.92;;;;;;;;;;5058786;28;20439;-65
2023/11/09 10:09:25;;;;;;;17.45;16.45;;;;;;;;;;5059205;28;20029;-64
2023/11/09 10:11:52;;;;;;;17.33;16.33;;;;;;;;;;5054386;28;20581;-64
2023/11/09 10:14:18;;;;;;;17.45;16.45;;;;;;;;;;5056874;28;20475;-64
2023/11/09 10:16:47;;;;;;;17.27;16.30;;;;;;;;;;5059876;28;20120;-64
2023/11/09 10:19:13;;;;;;;18.05;17.02;;;;;;;;;;5064247;28;20036;-64
2023/11/09 10:21:41;;;;;;;17.05;16.05;;;;;;;;;;5058201;28;20469;-63
2023/11/09 10:24:10;;;;;;;18.02;17.02;;;;;;;;;;5059929;28;20059;-64
2023/11/09 10:26:40;;;;;;;18.98;17.92;;;;;;;;;;5062171;28;20029;-62
2023/11/09 10:29:07;;;;;;;16.58;15.68;;;;;;;;;;5060881;28;20044;-64
2023/11/09 10:31:33;;;;;;;18.35;17.35;;;;;;;;;;5061461;28;20032;-64
2023/11/09 10:33:58;;;;;;;18.38;17.38;;;;;;;;;;5058846;28;20036;-64
2023/11/09 10:36:24;;;;;;;19.98;18.88;;;;;;;;;;5058975;28;20495;-63
2023/11/09 10:38:52;;;;;;;20.13;19.02;;;;;;;;;;5061845;28;20029;-64
2023/11/09 10:41:19;;;;;;;18.95;17.95;;;;;;;;;;5064092;28;20595;-64
2023/11/09 10:43:47;;;;;;;19.13;18.08;;;;;;;;;;5062421;28;20040;-64
2023/11/09 10:46:16;;;;;;;19.67;18.58;;;;;;;;;;5065227;28;20550;-64
2023/11/09 10:48:44;;;;;;;20.65;19.50;;;;;;;;;;5058491;28;20044;-64
2023/11/09 10:51:11;;;;;;;19.40;18.30;;;;;;;;;;5057770;28;20354;-63
2023/11/09 10:53:37;;;;;;;21.60;20.30;;;;;;;;;;5060841;28;20462;-64
2023/11/09 10:56:09;;;;;;;20.67;19.58;;;;;;;;;;5063353;28;20602;-64
2023/11/09 10:58:40;;;;;;;19.38;18.27;;;;;;;;;;5062293;28;20044;-64
2023/11/09 11:01:10;;;;;;;21.58;20.33;;;;;;;;;;5061884;28;20052;-64
2023/11/09 11:03:41;;;;;;;20.60;19.50;;;;;;;;;;5064138;28;20446;-64
2023/11/09 11:06:11;;;;;;;19.80;18.70;;;;;;;;;;5057520;28;20579;-63
2023/11/09 11:08:46;;;;;;;20.50;19.40;;;;;;;;;;5058982;28;20040;-64
2023/11/09 11:11:28;;;;;;;20.05;18.95;;;;;;;;;;5057938;28;20036;-64
2023/11/09 11:14:00;;;;;;;21.42;20.13;;;;;;;;;;5061681;28;20032;-64
2023/11/09 11:17:11;;;;;;;19.63;18.52;;;;;;;;;;5059119;28;20374;-64
2023/11/09 11:19:45;;;;;;;20.35;19.25;;;;;;;;;;5059879;28;20036;-64
2023/11/09 11:22:39;;;;;;;21.08;19.95;;;;;;;;;;5057468;28;20118;-63
2023/11/09 11:25:35;;;;;;;20.05;18.95;;;;;;;;;;5061268;28;20060;-63
2023/11/09 11:28:07;;;;;;;20.73;19.63;;;;;;;;;;5062150;28;20032;-63
2023/11/09 11:30:36;;;;;;;20.98;19.88;;;;;;;;;;5058122;28;20036;-64
2023/11/09 11:33:22;;;;;;;21.73;20.52;;;;;;;;;;5055799;28;20032;-63
2023/11/09 11:35:52;;;;;;;21.90;20.70;;;;;;;;;;5056899;28;20041;-64
2023/11/09 11:38:24;;;;;;;22.40;21.20;;;;;;;;;;5062868;28;20129;-63
2023/11/09 11:41:11;;;;;;;22.95;21.65;;;;;;;;;;5057603;28;20050;-63
2023/11/09 11:43:41;;;;;;;22.70;21.50;;;;;;;;;;5056647;28;20118;-64
2023/11/09 11:46:11;;;;;;;22.20;21.00;;;;;;;;;;5061439;28;20071;-63
2023/11/09 11:48:40;;;;;;;22.05;20.85;;;;;;;;;;5058828;28;20111;-63
2023/11/09 11:51:06;;;;;;;22.95;21.75;;;;;;;;;;5061405;28;20375;-63
2023/11/09 11:53:34;;;;;;;23.00;21.80;;;;;;;;;;5057797;28;20028;-63
2023/11/09 11:56:02;;;;;;;24.92;23.63;;;;;;;;;;5061860;28;20032;-63
2023/11/09 11:58:47;;;;;;;22.58;21.38;;;;;;;;;;5056565;28;20131;-63
2023/11/09 12:01:20;;;;;;;21.98;20.77;;;;;;;;;;5061105;28;20037;-63
2023/11/09 12:03:51;;;;;;;22.33;21.13;;;;;;;;;;5058907;28;20370;-63
2023/11/09 12:06:25;;;;;;;23.73;22.45;;;;;;;;;;5060052;28;20045;-63
2023/11/09 12:08:58;;;;;;;24.65;23.35;;;;;;;;;;5057128;28;20037;-63
2023/11/09 12:11:26;;;;;;;22.75;21.55;;;;;;;;;;5056821;28;20043;-63
2023/11/09 12:13:58;;;;;;;23.27;21.77;;;;;;;;;;5059658;28;20024;-64
2023/11/09 12:16:24;;;;;;;22.40;21.20;;;;;;;;;;5058420;28;20296;-63
2023/11/09 12:18:56;;;;;;;21.48;20.30;;;;;;;;;;5060477;28;20037;-62
2023/11/09 12:21:22;;;;;;;22.20;21.00;;;;;;;;;;5061286;28;20340;-63
2023/11/09 12:23:52;;;;;;;23.50;22.20;;;;;;;;;;5059537;28;20028;-63
2023/11/09 12:26:21;;;;;;;21.80;20.60;;;;;;;;;;5060022;28;20037;-63
2023/11/09 12:28:50;;;;;;;24.33;23.02;;;;;;;;;;5058990;28;20060;-64
2023/11/09 12:31:20;;;;;;;21.35;20.15;;;;;;;;;;5061254;28;20525;-63
2023/11/09 12:34:09;;;;;;;22.63;21.42;;;;;;;;;;5062126;28;20491;-64
2023/11/09 12:36:38;;;;;;;21.52;20.33;;;;;;;;;;5058370;28;20033;-63
2023/11/09 12:39:17;;;;;;;20.77;19.67;;;;;;;;;;5061685;28;20416;-64
2023/11/09 12:41:44;;;;;;;20.02;18.92;;;;;;;;;;5044789;28;20029;-64
2023/11/09 12:44:10;;;;;;;21.75;20.55;;;;;;;;;;5062187;28;20075;-64
2023/11/09 12:46:36;;;;;;;20.70;19.55;;;;;;;;;;5060220;28;20402;-64
2023/11/09 12:49:07;;;;;;;22.23;21.02;;;;;;;;;;5060103;28;20160;-64
2023/11/09 12:51:33;;;;;;;;;;;;;;;;;;5060828;28;20097;-64
2023/11/09 12:54:00;;;;;;;22.20;21.00;;;;;;;;;;5058686;28;19999;-65
2023/11/09 12:56:25;;;;;;;21.38;20.17;;;;;;;;;;5063948;28;20123;-64
2023/11/09 12:58:55;;;;;;;21.73;20.52;;;;;;;;;;5060721;28;20116;-63
2023/11/09 13:01:26;;;;;;;23.33;22.13;;;;;;;;;;5058676;28;20127;-63
2023/11/09 13:03:54;;;;;;;23.35;22.10;;;;;;;;;;5058720;28;20546;-64
2023/11/09 13:06:23;;;;;;;25.25;23.85;;;;;;;;;;5058400;28;20162;-66
2023/11/09 13:11:49;;;;;;;25.37;24.03;;;;;;;;;;5053533;28;20538;-64
2023/11/09 13:14:19;;;;;;;31.35;29.67;;;;;;;;;;5059405;28;20036;-64
2023/11/09 13:16:45;;;;;;;30.50;28.93;;;;;;;;;;5056940;28;20029;-64
2023/11/09 13:19:11;;;;;;;31.50;29.88;;;;;;;;;;5059027;28;20040;-64
2023/11/09 13:21:37;;;;;;;32.58;30.90;;;;;;;;;;5059873;28;20036;-64
2023/11/09 13:24:04;;;;;;;36.80;34.92;;;;;;;;;;5060551;28;20032;-64
2023/11/09 13:26:30;;;;;;;34.53;32.72;;;;;;;;;;5059500;28;20092;-64
2023/11/09 13:29:06;;;;;;;36.90;34.95;;;;;;;;;;5058374;28;20028;-64
2023/11/09 13:31:34;;;;;;;33.88;32.08;;;;;;;;;;5057507;28;20506;-62
2023/11/09 13:34:00;;;;;;;36.47;34.60;;;;;;;;;;5057157;28;20040;-64
2023/11/09 13:36:43;;;;;;;37.65;35.72;;;;;;;;;;5058908;28;20648;-63
2023/11/09 13:41:42;;;;;;;35.08;33.28;;;;;;;;;;5059171;28;20036;-65
2023/11/09 13:44:11;;;;;;;35.67;33.83;;;;;;;;;;5060360;28;20048;-64
2023/11/09 13:46:39;;;;;;;36.03;34.17;;;;;;;;;;5060569;28;20550;-65
2023/11/09 13:59:56;;;;;;;33.53;31.80;;;;;;;;;;5066397;28;20039;-64
2023/11/09 14:02:29;;;;;;;32.03;30.35;;;;;;;;;;5060678;28;20120;-65
2023/11/09 14:05:04;;;;;;;31.52;29.83;;;;;;;;;;5062375;28;20029;-64
2023/11/09 14:07:34;;;;;;;34.47;32.67;;;;;;;;;;5061171;28;20060;-64
2023/11/09 14:10:13;;;;;;;30.15;28.55;;;;;;;;;;5063035;28;20072;-65
2023/11/09 14:12:49;;;;;;;28.40;26.90;;;;;;;;;;5063109;28;20120;-65
2023/11/09 14:15:26;;;;;;;26.00;24.63;;;;;;;;;;5063125;28;20040;-64
2023/11/09 14:17:54;;;;;;;27.63;25.98;;;;;;;;;;5059164;28;20067;-65
2023/11/09 14:20:32;;;;;;;26.25;24.88;;;;;;;;;;5065826;28;20629;-64
2023/11/09 14:23:05;;;;;;;26.02;24.65;;;;;;;;;;5062823;28;20047;-64
2023/11/09 14:25:32;;;;;;;25.00;23.70;;;;;;;;;;5068070;28;20103;-64
2023/11/09 14:27:59;;;;;;;27.85;26.35;;;;;;;;;;5058455;28;20025;-65
2023/11/09 14:30:31;;;;;;;26.63;25.23;;;;;;;;;;5063792;28;20525;-64
2023/11/09 14:33:02;;;;;;;28.38;26.88;;;;;;;;;;5065514;28;20029;-64
2023/11/09 14:35:31;;;;;;;24.83;23.52;;;;;;;;;;5061329;28;20024;-65
2023/11/09 14:38:04;;;;;;;25.52;24.02;;;;;;;;;;5064445;28;20107;-65
2023/11/09 14:40:30;;;;;;;23.35;22.10;;;;;;;;;;5061452;28;20037;-65
2023/11/09 14:42:56;;;;;;;23.33;22.08;;;;;;;;;;5065690;28;20032;-65
2023/11/09 14:45:28;;;;;;;25.27;23.85;;;;;;;;;;5067221;28;20094;-64
2023/11/09 14:47:56;;;;;;;22.92;21.63;;;;;;;;;;5062010;28;20037;-65
2023/11/09 14:50:24;;;;;;;22.50;20.85;;;;;;;;;;5062806;28;20029;-65